Time;durP1;ratioP1;P1;durP2;ratioP2;P2;SDS_P1;SDS_P2;PMS_P1;PMS_P2;Temp;Humidity;BMP_temperature;BMP_pressure;BME280_temperature;BME280_humidity;BME280_pressure;Samples;Min_cycle;Max_cycle;Signal;HPM_P1;HPM_P2
2021/06/16 00:00:29;;;;;;;13.48;5.60;;;13.10;90.00;;;;;;5064137;28;20056;-83
2021/06/16 00:02:55;;;;;;;13.30;5.30;;;13.10;90.00;;;;;;5030318;28;20384;-85
2021/06/16 00:05:28;;;;;;;14.23;5.30;;;13.10;90.00;;;;;;5038071;28;20246;-86
2021/06/16 00:07:54;;;;;;;18.00;6.22;;;13.10;90.00;;;;;;5035180;28;20037;-86
2021/06/16 00:10:30;;;;;;;13.30;6.07;;;13.10;90.00;;;;;;5025507;28;20032;-85
2021/06/16 00:12:57;;;;;;;13.80;4.97;;;13.10;90.00;;;;;;5023189;28;20495;-83
2021/06/16 00:15:29;;;;;;;13.82;5.18;;;13.10;90.10;;;;;;5035860;28;20044;-85
2021/06/16 00:17:55;;;;;;;12.73;5.35;;;13.10;90.10;;;;;;5036603;28;20490;-85
2021/06/16 00:20:21;;;;;;;14.43;5.20;;;13.00;90.10;;;;;;5045698;28;20033;-86
2021/06/16 00:22:47;;;;;;;9.45;5.45;;;13.00;90.10;;;;;;5036055;28;20605;-86
2021/06/16 00:25:13;;;;;;;13.30;5.32;;;13.00;90.10;;;;;;5016821;28;20354;-86
2021/06/16 00:27:38;;;;;;;12.10;5.28;;;13.00;90.10;;;;;;5016444;28;20029;-83
2021/06/16 00:30:08;;;;;;;17.02;5.38;;;12.90;90.10;;;;;;5019672;28;20462;-84
2021/06/16 00:32:34;;;;;;;15.23;5.47;;;12.90;90.10;;;;;;5031909;28;20281;-85
2021/06/16 00:35:00;;;;;;;12.30;5.28;;;12.90;90.30;;;;;;5045815;28;20576;-84
2021/06/16 00:37:26;;;;;;;17.67;6.40;;;12.80;90.50;;;;;;5007571;28;20116;-83
2021/06/16 00:39:51;;;;;;;14.15;5.50;;;12.80;90.30;;;;;;5024746;28;20666;-86
2021/06/16 00:42:21;;;;;;;16.90;6.30;;;12.80;90.30;;;;;;5036054;28;20032;-87
2021/06/16 00:44:46;;;;;;;16.42;5.68;;;12.70;90.40;;;;;;5048805;28;20068;-85
2021/06/16 00:47:14;;;;;;;14.27;6.05;;;12.70;90.40;;;;;;4997863;28;20348;-86
2021/06/16 00:49:40;;;;;;;14.80;5.53;;;12.70;90.60;;;;;;5047043;28;20033;-85
2021/06/16 00:52:07;;;;;;;13.45;5.70;;;12.70;90.40;;;;;;5013066;28;20047;-86
2021/06/16 00:54:35;;;;;;;14.00;5.85;;;12.70;90.40;;;;;;5034286;28;20060;-85
2021/06/16 00:57:02;;;;;;;12.50;5.97;;;12.70;90.40;;;;;;5047659;28;20044;-86
2021/06/16 00:59:39;;;;;;;16.65;6.63;;;12.70;90.40;;;;;;5033871;28;20118;-86
2021/06/16 01:02:05;;;;;;;15.80;6.40;;;12.60;90.50;;;;;;5030994;28;20040;-86
2021/06/16 01:04:32;;;;;;;12.10;5.70;;;12.60;90.40;;;;;;5017445;28;20244;-83
2021/06/16 01:07:11;;;;;;;10.35;5.57;;;12.60;90.50;;;;;;5022195;28;20040;-85
2021/06/16 01:09:58;;;;;;;12.20;6.15;;;12.60;90.50;;;;;;5020786;28;20036;-86
2021/06/16 01:12:35;;;;;;;16.38;6.00;;;12.60;90.50;;;;;;5045848;28;20090;-86
2021/06/16 01:15:07;;;;;;;13.55;5.82;;;12.50;90.60;;;;;;5037813;28;20040;-86
2021/06/16 01:17:34;;;;;;;16.20;6.80;;;12.50;90.60;;;;;;5065496;28;20025;-84
2021/06/16 01:20:06;;;;;;;16.30;6.43;;;12.50;90.60;;;;;;5026301;28;20033;-84
2021/06/16 01:22:52;;;;;;;9.83;6.13;;;12.50;90.60;;;;;;5042985;28;20021;-81
2021/06/16 01:25:29;;;;;;;14.00;6.85;;;12.50;90.70;;;;;;5074148;28;20029;-82
2021/06/16 01:27:55;;;;;;;14.65;6.60;;;12.40;90.70;;;;;;5077310;28;20051;-87
2021/06/16 01:30:23;;;;;;;21.60;7.03;;;12.40;90.80;;;;;;5027391;28;20217;-84
2021/06/16 01:32:50;;;;;;;12.40;6.15;;;12.40;90.90;;;;;;5049960;28;20044;-87
2021/06/16 01:35:16;;;;;;;9.68;6.20;;;12.30;90.90;;;;;;5016146;28;20677;-85
2021/06/16 01:37:42;;;;;;;12.32;6.35;;;12.30;90.90;;;;;;4998543;28;20036;-84
2021/06/16 01:40:11;;;;;;;11.88;6.43;;;12.30;90.90;;;;;;5018324;28;20037;-86
2021/06/16 01:42:39;;;;;;;12.85;7.07;;;12.20;90.90;;;;;;5033338;28;20381;-86
2021/06/16 01:45:06;;;;;;;15.90;6.75;;;12.20;90.90;;;;;;5051014;28;20048;-84
2021/06/16 01:47:32;;;;;;;12.60;6.40;;;12.20;90.90;;;;;;5031098;28;20025;-86
2021/06/16 01:50:02;;;;;;;15.63;6.78;;;12.20;91.00;;;;;;5029700;28;20120;-87
2021/06/16 01:52:30;;;;;;;17.63;6.63;;;12.20;91.00;;;;;;5026811;28;20040;-86
2021/06/16 01:54:57;;;;;;;13.52;6.30;;;12.20;91.00;;;;;;5066279;28;20056;-86
2021/06/16 01:57:24;;;;;;;13.93;6.80;;;12.20;91.00;;;;;;5065579;28;20045;-86
2021/06/16 01:59:55;;;;;;;13.55;6.63;;;12.20;91.00;;;;;;5034139;28;20489;-83
2021/06/16 02:02:21;;;;;;;15.43;6.82;;;12.20;91.00;;;;;;5031872;28;20107;-86
2021/06/16 02:04:47;;;;;;;12.65;6.90;;;12.20;91.00;;;;;;5044843;28;20117;-86
2021/06/16 02:07:19;;;;;;;12.95;6.80;;;12.20;90.90;;;;;;5030831;28;20033;-86
2021/06/16 02:09:48;;;;;;;13.05;7.07;;;12.20;91.00;;;;;;5034381;28;20067;-85
2021/06/16 02:12:15;;;;;;;13.98;6.90;;;12.10;91.00;;;;;;5038733;28;20328;-85
2021/06/16 02:14:49;;;;;;;19.00;6.90;;;12.10;90.90;;;;;;5015091;28;20471;-84
2021/06/16 02:17:16;;;;;;;12.68;6.90;;;12.10;91.00;;;;;;5066563;28;20035;-83
2021/06/16 02:19:45;;;;;;;13.30;6.68;;;12.10;91.00;;;;;;5029199;28;20048;-85
2021/06/16 02:22:11;;;;;;;15.07;6.78;;;12.10;91.00;;;;;;5028379;28;20049;-86
2021/06/16 02:24:39;;;;;;;15.15;7.15;;;12.10;91.10;;;;;;5032431;28;20503;-84
2021/06/16 02:27:05;;;;;;;17.02;6.97;;;12.00;91.00;;;;;;5031905;28;20528;-86
2021/06/16 02:29:31;;;;;;;13.15;6.90;;;12.00;91.00;;;;;;5032158;28;20040;-84
2021/06/16 02:31:58;;;;;;;11.82;6.38;;;12.00;91.00;;;;;;5030570;28;20196;-85
2021/06/16 02:34:25;;;;;;;15.18;6.72;;;12.00;91.10;;;;;;5030889;28;20037;-83
2021/06/16 02:36:56;;;;;;;14.20;7.35;;;12.00;91.10;;;;;;5030915;28;20064;-85
2021/06/16 02:39:37;;;;;;;15.02;7.07;;;12.00;91.10;;;;;;5031388;28;20139;-86
2021/06/16 02:42:05;;;;;;;13.00;7.18;;;12.00;91.10;;;;;;5062823;28;20068;-86
2021/06/16 02:44:32;;;;;;;19.17;8.23;;;12.00;91.10;;;;;;5059995;28;22008;-87
2021/06/16 02:46:59;;;;;;;14.70;6.90;;;11.90;91.20;;;;;;5046088;28;20401;-83
2021/06/16 02:49:35;;;;;;;20.75;7.38;;;11.90;91.20;;;;;;5031278;28;20156;-87
2021/06/16 02:52:04;;;;;;;12.65;7.15;;;11.90;91.30;;;;;;5062271;28;20795;-86
2021/06/16 02:54:31;;;;;;;14.90;6.90;;;11.90;91.30;;;;;;5030163;28;20140;-86
2021/06/16 02:57:01;;;;;;;16.63;6.65;;;11.90;91.40;;;;;;5053595;28;20150;-86
2021/06/16 02:59:30;;;;;;;16.00;7.38;;;11.80;91.30;;;;;;5058109;28;20044;-86
2021/06/16 03:01:57;;;;;;;17.83;7.53;;;11.80;91.30;;;;;;5028774;28;20033;-86
2021/06/16 03:04:25;;;;;;;11.30;7.15;;;11.80;91.40;;;;;;5067525;28;20094;-86
2021/06/16 03:06:55;;;;;;;15.30;7.00;;;11.80;91.50;;;;;;5029453;28;20116;-84
2021/06/16 03:09:23;;;;;;;14.75;7.28;;;11.80;91.40;;;;;;5030970;28;20033;-85
2021/06/16 03:11:53;;;;;;;10.85;7.07;;;11.80;91.50;;;;;;5047026;28;20167;-85
2021/06/16 03:14:23;;;;;;;13.95;7.00;;;11.70;91.50;;;;;;5026012;28;20033;-86
2021/06/16 03:16:51;;;;;;;10.18;6.18;;;11.80;91.50;;;;;;5047166;28;20120;-83
2021/06/16 03:19:21;;;;;;;14.60;7.47;;;11.70;91.40;;;;;;5031908;28;20065;-85
2021/06/16 03:21:48;;;;;;;12.13;7.15;;;11.70;91.50;;;;;;5061577;28;20033;-86
2021/06/16 03:24:17;;;;;;;16.88;8.00;;;11.70;91.40;;;;;;5029750;28;20108;-86
2021/06/16 03:26:43;;;;;;;14.63;7.18;;;11.80;91.60;;;;;;5028177;28;20025;-85
2021/06/16 03:29:11;;;;;;;13.30;7.55;;;11.70;91.90;;;;;;5046522;28;20037;-85
2021/06/16 03:31:41;;;;;;;14.10;7.45;;;11.70;91.60;;;;;;5063726;28;20414;-86
2021/06/16 03:34:08;;;;;;;16.83;7.85;;;11.70;91.70;;;;;;5029603;28;20239;-86
2021/06/16 03:36:36;;;;;;;14.88;8.30;;;11.70;91.70;;;;;;5046218;28;20029;-85
2021/06/16 03:39:04;;;;;;;15.38;7.60;;;11.70;91.80;;;;;;5063972;28;20090;-86
2021/06/16 03:41:31;;;;;;;16.17;7.05;;;11.70;91.70;;;;;;5034693;28;20025;-86
2021/06/16 03:43:58;;;;;;;15.45;7.03;;;11.70;91.80;;;;;;5086382;28;20037;-88
2021/06/16 03:46:25;;;;;;;11.60;6.60;;;11.70;91.80;;;;;;5070215;28;20034;-86
2021/06/16 03:48:55;;;;;;;17.52;7.70;;;11.80;91.80;;;;;;5050646;28;20033;-86
2021/06/16 03:51:23;;;;;;;13.52;7.30;;;11.80;91.80;;;;;;5050972;28;20040;-86
2021/06/16 03:53:49;;;;;;;13.93;7.60;;;11.80;91.80;;;;;;5022422;28;20550;-86
2021/06/16 03:56:16;;;;;;;14.48;7.53;;;11.90;91.80;;;;;;5048313;28;20037;-86
2021/06/16 03:58:42;;;;;;;12.07;7.45;;;11.90;91.80;;;;;;5037680;28;20511;-87
2021/06/16 04:01:16;;;;;;;12.98;7.63;;;11.90;91.80;;;;;;5018127;28;20079;-87
2021/06/16 04:03:42;;;;;;;16.08;7.47;;;12.00;91.80;;;;;;5051397;28;20025;-85
2021/06/16 04:06:08;;;;;;;16.23;7.75;;;12.00;91.80;;;;;;5033644;28;20039;-86
2021/06/16 04:08:38;;;;;;;18.30;8.02;;;12.00;91.80;;;;;;5023253;28;20155;-86
2021/06/16 04:11:05;;;;;;;17.75;8.27;;;12.10;91.80;;;;;;5046980;28;20114;-88
2021/06/16 04:13:31;;;;;;;13.55;7.85;;;12.10;92.10;;;;;;5019491;28;20388;-86
2021/06/16 04:15:57;;;;;;;14.52;6.85;;;12.20;91.80;;;;;;5037562;28;20045;-86
2021/06/16 04:18:23;;;;;;;17.05;7.78;;;12.20;91.80;;;;;;5003162;28;20456;-86
2021/06/16 04:20:49;;;;;;;14.07;7.63;;;12.30;91.70;;;;;;5069567;28;20385;-85
2021/06/16 04:23:15;;;;;;;17.33;7.80;;;12.40;91.70;;;;;;5051808;28;20028;-86
2021/06/16 04:25:41;;;;;;;17.08;7.95;;;12.40;91.70;;;;;;5019740;28;21446;-85
2021/06/16 04:28:07;;;;;;;13.85;7.43;;;12.50;91.70;;;;;;5002556;28;20065;-86
2021/06/16 04:30:33;;;;;;;13.73;7.28;;;12.50;91.60;;;;;;5049375;28;20368;-85
2021/06/16 04:32:58;;;;;;;14.38;7.13;;;12.60;91.60;;;;;;5034715;28;20041;-86
2021/06/16 04:35:25;;;;;;;14.80;7.22;;;12.70;91.60;;;;;;5018776;28;20582;-87
2021/06/16 04:37:50;;;;;;;16.27;7.70;;;12.70;91.60;;;;;;5046317;28;20248;-87
2021/06/16 04:40:16;;;;;;;16.73;8.15;;;12.80;91.60;;;;;;5067632;28;20120;-86
2021/06/16 04:42:43;;;;;;;15.93;8.07;;;12.80;91.60;;;;;;5038374;28;20036;-86
2021/06/16 04:45:09;;;;;;;16.75;8.18;;;12.90;91.60;;;;;;5040407;28;20402;-85
2021/06/16 04:47:36;;;;;;;17.95;8.43;;;12.90;91.60;;;;;;5034840;28;20037;-86
2021/06/16 04:50:05;;;;;;;18.17;8.77;;;13.00;91.60;;;;;;5052858;28;20075;-87
2021/06/16 04:52:31;;;;;;;13.82;8.27;;;13.10;91.70;;;;;;5042122;28;20037;-86
2021/06/16 04:54:57;;;;;;;17.13;7.85;;;13.10;91.60;;;;;;5024937;28;20118;-86
2021/06/16 04:57:23;;;;;;;16.05;8.30;;;13.10;91.50;;;;;;5034047;28;20033;-86
2021/06/16 04:59:49;;;;;;;18.23;8.27;;;13.20;91.50;;;;;;5040666;28;20033;-85
2021/06/16 05:02:15;;;;;;;14.10;7.68;;;13.30;91.40;;;;;;5017707;28;20034;-86
2021/06/16 05:04:41;;;;;;;13.27;7.90;;;13.30;91.40;;;;;;5031971;28;20116;-85
2021/06/16 05:07:07;;;;;;;13.30;8.13;;;13.40;91.40;;;;;;5049515;28;20172;-86
2021/06/16 05:09:33;;;;;;;16.95;7.60;;;13.50;91.50;;;;;;5034465;28;20494;-85
2021/06/16 05:11:59;;;;;;;13.48;7.82;;;13.60;91.40;;;;;;5034626;28;20219;-86
2021/06/16 05:14:25;;;;;;;15.23;7.80;;;13.60;91.20;;;;;;5044890;28;20779;-86
2021/06/16 05:16:53;;;;;;;17.27;7.75;;;13.70;91.10;;;;;;5039209;28;20767;-88
2021/06/16 05:19:21;;;;;;;15.80;8.40;;;13.80;91.00;;;;;;5050587;28;20236;-88
2021/06/16 05:21:47;;;;;;;16.23;7.60;;;13.90;90.90;;;;;;5040755;28;20071;-87
2021/06/16 05:24:14;;;;;;;16.38;7.55;;;14.00;90.80;;;;;;5049372;28;20037;-86
2021/06/16 05:26:40;;;;;;;19.25;7.75;;;14.10;90.80;;;;;;5037758;28;20036;-88
2021/06/16 05:29:07;;;;;;;12.85;7.75;;;14.10;90.80;;;;;;5042200;28;20512;-87
2021/06/16 05:31:34;;;;;;;16.67;8.68;;;14.20;90.70;;;;;;5028574;28;20037;-85
2021/06/16 05:34:01;;;;;;;17.92;8.60;;;14.30;90.70;;;;;;5031236;28;20065;-87
2021/06/16 05:36:27;;;;;;;13.93;7.70;;;14.40;90.60;;;;;;5063645;28;20264;-85
2021/06/16 05:38:53;;;;;;;14.65;7.97;;;14.40;90.60;;;;;;5065694;28;20748;-86
2021/06/16 05:41:19;;;;;;;15.80;7.68;;;14.50;90.60;;;;;;5053578;28;20041;-86
2021/06/16 05:43:44;;;;;;;12.00;7.70;;;14.60;90.60;;;;;;5018766;28;20029;-88
2021/06/16 05:46:11;;;;;;;11.57;7.18;;;14.60;90.50;;;;;;5023792;28;20040;-86
2021/06/16 05:48:37;;;;;;;14.88;7.72;;;14.70;90.40;;;;;;5031500;28;20044;-88
2021/06/16 05:51:03;;;;;;;18.27;7.82;;;14.80;90.30;;;;;;5030984;28;20041;-87
2021/06/16 05:53:29;;;;;;;18.23;7.22;;;14.90;90.10;;;;;;5000256;28;20090;-86
2021/06/16 05:55:55;;;;;;;10.75;6.97;;;15.00;90.00;;;;;;5014235;28;20049;-88
2021/06/16 05:58:21;;;;;;;15.60;8.27;;;15.10;90.00;;;;;;5008926;28;20060;-87
2021/06/16 06:00:47;;;;;;;15.27;7.93;;;15.10;90.00;;;;;;5025993;28;20118;-86
2021/06/16 06:03:13;;;;;;;19.05;7.85;;;15.20;90.00;;;;;;5048086;28;20395;-86
2021/06/16 06:05:40;;;;;;;16.42;7.35;;;15.30;89.80;;;;;;5061490;28;20128;-86
2021/06/16 06:08:07;;;;;;;16.55;7.68;;;15.40;89.80;;;;;;5034031;28;20636;-87
2021/06/16 06:10:33;;;;;;;17.63;7.57;;;15.50;89.70;;;;;;5049606;28;20033;-85
2021/06/16 06:12:59;;;;;;;16.40;8.23;;;15.60;89.60;;;;;;5038778;28;20132;-86
2021/06/16 06:15:25;;;;;;;14.40;7.22;;;15.60;89.30;;;;;;5017562;28;20578;-87
2021/06/16 06:17:51;;;;;;;17.20;7.30;;;15.80;89.30;;;;;;5008402;28;20041;-86
2021/06/16 06:20:17;;;;;;;16.40;7.15;;;15.90;89.10;;;;;;5020183;28;20043;-87
2021/06/16 06:22:43;;;;;;;14.82;7.18;;;16.00;89.00;;;;;;5034937;28;20036;-86
2021/06/16 06:25:10;;;;;;;16.92;7.47;;;16.20;88.80;;;;;;5011763;28;20041;-87
2021/06/16 06:27:36;;;;;;;14.82;7.47;;;16.30;88.70;;;;;;5059418;28;20032;-85
2021/06/16 06:30:04;;;;;;;15.05;7.00;;;16.40;88.50;;;;;;5010909;28;20423;-86
2021/06/16 06:32:30;;;;;;;13.52;6.90;;;16.50;87.90;;;;;;5029201;28;20045;-88
2021/06/16 06:34:57;;;;;;;14.30;6.38;;;16.70;87.80;;;;;;5041241;28;20043;-85
2021/06/16 06:37:22;;;;;;;14.32;7.03;;;16.80;87.70;;;;;;5052524;28;20081;-85
2021/06/16 06:39:49;;;;;;;14.25;6.47;;;16.90;86.90;;;;;;5068546;28;20126;-86
2021/06/16 06:42:16;;;;;;;16.52;7.22;;;17.10;86.00;;;;;;5056002;28;20029;-84
2021/06/16 06:44:42;;;;;;;17.08;7.25;;;17.20;85.20;;;;;;5036054;28;20060;-85
2021/06/16 06:47:08;;;;;;;14.75;6.57;;;17.40;84.80;;;;;;5050602;28;20029;-85
2021/06/16 06:49:35;;;;;;;13.32;5.88;;;17.50;84.40;;;;;;5037524;28;20036;-86
2021/06/16 06:52:00;;;;;;;16.23;6.10;;;17.60;84.20;;;;;;5029188;28;20344;-86
2021/06/16 06:54:26;;;;;;;14.38;6.45;;;17.80;83.90;;;;;;5043955;28;20068;-86
2021/06/16 06:56:52;;;;;;;13.68;6.15;;;17.90;83.40;;;;;;5043676;28;20506;-85
2021/06/16 06:59:18;;;;;;;12.20;5.03;;;18.10;82.80;;;;;;5043120;28;20049;-85
2021/06/16 07:01:44;;;;;;;13.48;5.57;;;18.20;83.00;;;;;;5055034;28;20029;-86
2021/06/16 07:04:10;;;;;;;15.43;5.53;;;18.40;82.90;;;;;;5058304;28;20475;-85
2021/06/16 07:06:36;;;;;;;16.73;5.53;;;18.60;82.50;;;;;;5011820;28;20045;-85
2021/06/16 07:09:03;;;;;;;11.18;5.43;;;18.70;82.00;;;;;;4998178;28;20609;-84
2021/06/16 07:11:29;;;;;;;13.88;5.15;;;18.80;81.60;;;;;;5027413;28;20064;-85
2021/06/16 07:13:55;;;;;;;16.83;5.32;;;19.00;80.80;;;;;;5062569;28;20056;-85
2021/06/16 07:16:21;;;;;;;9.73;5.07;;;19.10;80.60;;;;;;5040265;28;20517;-84
2021/06/16 07:18:48;;;;;;;14.13;4.97;;;19.10;80.40;;;;;;5032706;28;20075;-85
2021/06/16 07:21:14;;;;;;;11.30;4.45;;;19.30;80.20;;;;;;5033232;28;20534;-85
2021/06/16 07:23:40;;;;;;;12.85;5.50;;;19.40;79.40;;;;;;5030296;28;20041;-86
2021/06/16 07:26:06;;;;;;;17.65;6.68;;;19.50;79.20;;;;;;5031394;28;20092;-84
2021/06/16 07:28:32;;;;;;;11.10;5.07;;;19.70;78.00;;;;;;5035000;28;20047;-84
2021/06/16 07:30:58;;;;;;;11.18;4.68;;;19.80;78.10;;;;;;5030264;28;20045;-85
2021/06/16 07:33:24;;;;;;;7.88;4.07;;;19.90;77.60;;;;;;5044750;28;20483;-85
2021/06/16 07:35:50;;;;;;;13.68;4.25;;;20.00;77.50;;;;;;5034871;28;20040;-84
2021/06/16 07:38:16;;;;;;;6.78;4.05;;;20.10;77.10;;;;;;5032480;28;20672;-86
2021/06/16 07:40:42;;;;;;;10.05;4.57;;;20.20;77.20;;;;;;5050868;28;20070;-85
2021/06/16 07:43:08;;;;;;;13.65;4.05;;;20.30;76.40;;;;;;5015250;28;20041;-87
2021/06/16 07:45:34;;;;;;;17.08;5.00;;;20.40;76.00;;;;;;5033219;28;20130;-85
2021/06/16 07:48:00;;;;;;;11.07;4.25;;;20.50;75.00;;;;;;5049882;28;20034;-87
2021/06/16 07:50:26;;;;;;;16.80;4.50;;;20.60;74.60;;;;;;5043693;28;20727;-84
2021/06/16 07:52:52;;;;;;;15.13;4.57;;;20.70;74.40;;;;;;5011572;28;20044;-85
2021/06/16 07:55:19;;;;;;;10.10;4.90;;;20.80;74.90;;;;;;5043421;28;20131;-86
2021/06/16 07:57:45;;;;;;;9.20;4.28;;;20.90;73.60;;;;;;5029479;28;20500;-88
2021/06/16 08:00:12;;;;;;;11.10;5.15;;;20.90;74.10;;;;;;5013342;28;20119;-85
2021/06/16 08:02:39;;;;;;;14.27;4.40;;;21.00;73.10;;;;;;5027549;28;20049;-84
2021/06/16 08:05:07;;;;;;;8.57;3.63;;;21.10;73.40;;;;;;5018844;28;20061;-84
2021/06/16 08:07:34;;;;;;;11.88;4.40;;;21.20;72.00;;;;;;5066507;28;20120;-86
2021/06/16 08:10:00;;;;;;;9.30;4.03;;;21.20;72.50;;;;;;5066759;28;20518;-86
2021/06/16 08:12:26;;;;;;;8.00;4.13;;;21.30;73.50;;;;;;5015434;28;20041;-86
2021/06/16 08:14:52;;;;;;;9.50;4.20;;;21.30;72.90;;;;;;5024315;28;20044;-85
2021/06/16 08:17:18;;;;;;;11.10;3.58;;;21.40;72.50;;;;;;5005315;28;20039;-87
2021/06/16 08:19:44;;;;;;;9.57;3.95;;;21.50;72.10;;;;;;5027446;28;20037;-87
2021/06/16 08:22:13;;;;;;;7.78;3.90;;;21.50;71.60;;;;;;5049171;28;21452;-88
2021/06/16 08:24:39;;;;;;;10.73;4.57;;;21.60;70.60;;;;;;5035911;28;20039;-86
2021/06/16 08:27:07;;;;;;;9.05;3.30;;;21.60;69.00;;;;;;5029390;28;20033;-87
2021/06/16 08:29:33;;;;;;;6.63;3.47;;;21.70;70.60;;;;;;5059286;28;20041;-86
2021/06/16 08:31:59;;;;;;;8.90;3.83;;;21.70;70.10;;;;;;5045704;28;20053;-89
2021/06/16 08:34:25;;;;;;;9.60;3.72;;;21.80;70.90;;;;;;5030920;28;20037;-86
2021/06/16 08:36:51;;;;;;;13.10;3.55;;;21.90;70.20;;;;;;5031923;28;20044;-85
2021/06/16 08:39:17;;;;;;;9.52;3.83;;;21.90;68.80;;;;;;5031974;28;20037;-86
2021/06/16 08:41:43;;;;;;;9.27;3.00;;;21.80;68.40;;;;;;5032514;28;20033;-86
2021/06/16 08:44:11;;;;;;;7.20;3.30;;;21.90;68.80;;;;;;5033626;28;20037;-87
2021/06/16 08:46:38;;;;;;;8.80;3.20;;;21.90;68.90;;;;;;5042431;28;20029;-86
2021/06/16 08:49:05;;;;;;;12.80;3.15;;;21.90;68.80;;;;;;5026186;28;20041;-87
2021/06/16 08:51:33;;;;;;;13.77;3.30;;;22.00;68.20;;;;;;5057465;28;20097;-85
2021/06/16 08:53:59;;;;;;;7.22;2.90;;;21.90;67.70;;;;;;5045397;28;21332;-85
2021/06/16 08:56:25;;;;;;;6.68;2.85;;;21.90;67.70;;;;;;5019696;28;20503;-85
2021/06/16 08:58:51;;;;;;;7.70;2.80;;;21.90;67.20;;;;;;5034523;28;20131;-85
2021/06/16 09:01:17;;;;;;;12.25;2.85;;;21.90;67.20;;;;;;5021745;28;20040;-84
2021/06/16 09:03:43;;;;;;;4.85;2.30;;;22.00;67.50;;;;;;5040450;28;20416;-85
2021/06/16 09:06:14;;;;;;;6.63;1.98;;;22.00;66.10;;;;;;5037891;28;20040;-85
2021/06/16 09:09:01;;;;;;;9.48;3.00;;;22.00;65.50;;;;;;5025348;28;20120;-84
2021/06/16 09:11:30;;;;;;;16.38;3.00;;;22.00;66.50;;;;;;5041242;28;20052;-84
2021/06/16 09:14:19;;;;;;;5.32;2.15;;;22.10;64.80;;;;;;5043256;28;20053;-84
2021/06/16 09:16:46;;;;;;;5.88;2.25;;;22.10;65.10;;;;;;5043580;28;20911;-83
2021/06/16 09:19:20;;;;;;;10.63;2.55;;;22.10;62.60;;;;;;5041167;28;21428;-85
2021/06/16 09:21:48;;;;;;;8.88;2.30;;;22.10;63.30;;;;;;5047175;28;20114;-85
2021/06/16 09:24:14;;;;;;;7.68;2.50;;;22.10;63.80;;;;;;5044006;28;20032;-85
2021/06/16 09:26:43;;;;;;;7.18;2.20;;;22.10;64.20;;;;;;5039557;28;20029;-84
2021/06/16 09:29:09;;;;;;;7.18;2.28;;;22.10;64.80;;;;;;5077481;28;20203;-85
2021/06/16 09:31:38;;;;;;;7.03;2.35;;;22.20;64.30;;;;;;5025172;28;20052;-86
2021/06/16 09:34:13;;;;;;;6.22;2.17;;;22.20;65.70;;;;;;5042588;28;20033;-84
2021/06/16 09:36:53;;;;;;;8.68;2.38;;;22.20;66.10;;;;;;5072597;28;20087;-87
2021/06/16 09:39:23;;;;;;;7.63;2.30;;;22.20;65.10;;;;;;5074649;28;20044;-86
2021/06/16 09:41:59;;;;;;;5.82;2.30;;;22.20;63.60;;;;;;5047066;28;20419;-84
2021/06/16 09:44:46;;;;;;;6.60;2.65;;;22.20;63.40;;;;;;5044645;28;20032;-84
2021/06/16 09:47:15;;;;;;;5.85;2.15;;;22.30;63.10;;;;;;5057881;28;20048;-86
2021/06/16 09:49:49;;;;;;;6.63;2.35;;;22.30;62.10;;;;;;5040106;28;20033;-85
2021/06/16 09:52:54;;;;;;;5.93;2.15;;;22.40;61.60;;;;;;5036855;28;20041;-84
2021/06/16 09:55:30;;;;;;;7.53;2.67;;;22.40;63.40;;;;;;5036136;28;20123;-87
2021/06/16 09:57:59;;;;;;;7.00;2.65;;;22.40;63.70;;;;;;5034727;28;20053;-85
2021/06/16 10:00:42;;;;;;;9.07;2.25;;;22.40;62.10;;;;;;5037953;28;20033;-85
2021/06/16 10:03:13;;;;;;;6.10;2.20;;;22.40;62.60;;;;;;5036484;28;20052;-84
2021/06/16 10:06:15;;;;;;;11.50;2.50;;;22.50;62.70;;;;;;5033948;28;20046;-86
2021/06/16 10:08:46;;;;;;;6.73;2.30;;;22.50;62.80;;;;;;5022184;28;20055;-84
2021/06/16 10:11:14;;;;;;;9.30;2.78;;;22.60;62.80;;;;;;5041714;28;20044;-82
2021/06/16 10:13:41;;;;;;;8.30;2.10;;;22.70;61.70;;;;;;5037957;28;20191;-83
2021/06/16 10:16:08;;;;;;;8.68;2.60;;;22.70;61.30;;;;;;5034294;28;20045;-86
2021/06/16 10:18:39;;;;;;;6.13;2.38;;;22.70;60.40;;;;;;5047631;28;20029;-83
2021/06/16 10:21:06;;;;;;;7.20;2.50;;;22.70;61.80;;;;;;5054107;28;20045;-83
2021/06/16 10:23:32;;;;;;;5.97;2.25;;;22.70;61.20;;;;;;5036016;28;20037;-84
2021/06/16 10:26:05;;;;;;;9.50;2.50;;;22.80;59.90;;;;;;5068341;28;20125;-82
2021/06/16 10:28:38;;;;;;;7.68;2.20;;;22.80;59.90;;;;;;5049908;28;20037;-82
2021/06/16 10:31:06;;;;;;;7.78;2.03;;;22.80;59.80;;;;;;5052326;28;20247;-82
2021/06/16 10:33:38;;;;;;;10.48;2.50;;;22.90;59.60;;;;;;5055269;28;20043;-83
2021/06/16 10:36:21;;;;;;;9.32;2.85;;;22.90;59.20;;;;;;5047158;28;22056;-86
2021/06/16 10:39:10;;;;;;;7.53;2.47;;;23.10;56.30;;;;;;5056441;28;20059;-83
2021/06/16 10:41:44;;;;;;;9.27;2.08;;;23.10;57.10;;;;;;5051314;28;20035;-83
2021/06/16 10:44:20;;;;;;;5.97;1.98;;;23.10;57.60;;;;;;5051168;28;20123;-83
2021/06/16 10:47:07;;;;;;;9.15;2.25;;;23.20;58.10;;;;;;5080525;28;20040;-84
2021/06/16 10:49:53;;;;;;;12.43;2.38;;;23.30;58.00;;;;;;5034035;28;20302;-83
2021/06/16 10:52:21;;;;;;;6.88;2.20;;;23.30;57.40;;;;;;5045439;28;20587;-82
2021/06/16 10:55:03;;;;;;;4.15;1.88;;;23.30;55.60;;;;;;5048926;28;20033;-83
2021/06/16 10:57:29;;;;;;;5.38;1.52;;;23.40;55.60;;;;;;5054251;28;20037;-82
2021/06/16 11:00:07;;;;;;;7.63;2.42;;;23.50;57.80;;;;;;5063768;28;20036;-82
2021/06/16 11:02:34;;;;;;;10.85;2.55;;;23.50;57.70;;;;;;5055963;28;20577;-83
2021/06/16 11:05:22;;;;;;;5.60;1.98;;;23.50;57.60;;;;;;5063907;28;20044;-84
2021/06/16 11:07:49;;;;;;;7.10;2.10;;;23.50;56.70;;;;;;5062990;28;20028;-82
2021/06/16 11:10:15;;;;;;;9.80;2.08;;;23.50;55.40;;;;;;5064267;28;20420;-82
2021/06/16 11:12:46;;;;;;;10.05;2.42;;;23.60;55.60;;;;;;5058767;28;20119;-84
2021/06/16 11:15:24;;;;;;;6.07;2.00;;;23.70;54.30;;;;;;5056382;28;20488;-84
2021/06/16 11:17:55;;;;;;;6.45;1.83;;;23.70;54.10;;;;;;5055713;28;20033;-84
2021/06/16 11:20:33;;;;;;;5.28;1.60;;;23.80;54.60;;;;;;5047011;28;20048;-85
2021/06/16 11:23:01;;;;;;;6.70;2.30;;;23.80;56.40;;;;;;5061821;28;20033;-84
2021/06/16 11:25:33;;;;;;;5.80;1.85;;;23.90;56.50;;;;;;5062916;28;20278;-83
2021/06/16 11:28:07;;;;;;;5.50;2.10;;;23.90;55.90;;;;;;5056900;28;20060;-85
2021/06/16 11:30:47;;;;;;;5.25;2.05;;;24.00;56.00;;;;;;5053596;28;20059;-84
2021/06/16 11:33:16;;;;;;;6.53;2.22;;;24.10;54.00;;;;;;5051216;28;20040;-83
2021/06/16 11:35:48;;;;;;;5.50;1.80;;;24.10;54.70;;;;;;5059222;28;20395;-84
2021/06/16 11:38:17;;;;;;;7.03;2.03;;;24.20;55.20;;;;;;5071219;28;20037;-85
2021/06/16 11:40:55;;;;;;;7.85;3.20;;;24.20;55.50;;;;;;5056673;28;20112;-86
2021/06/16 11:43:37;;;;;;;9.18;2.40;;;24.30;54.00;;;;;;5068276;28;20033;-87
2021/06/16 11:46:25;;;;;;;5.47;1.98;;;24.40;54.00;;;;;;5048582;28;20033;-85
2021/06/16 11:48:59;;;;;;;7.43;2.33;;;24.50;54.90;;;;;;5055588;28;20033;-84
2021/06/16 11:51:41;;;;;;;4.57;2.00;;;24.60;54.60;;;;;;5058558;28;20119;-83
2021/06/16 11:54:28;;;;;;;9.23;2.13;;;24.60;54.80;;;;;;5055430;28;20025;-83
2021/06/16 11:57:12;;;;;;;9.57;2.20;;;24.70;53.90;;;;;;5051144;28;20429;-81
2021/06/16 11:59:40;;;;;;;7.10;2.10;;;24.70;53.80;;;;;;5054707;28;20028;-84
2021/06/16 12:02:24;;;;;;;8.30;2.13;;;24.70;54.80;;;;;;5050020;28;20034;-84
2021/06/16 12:05:02;;;;;;;4.97;2.20;;;24.80;54.20;;;;;;5053011;28;20037;-84
2021/06/16 12:07:32;;;;;;;6.53;2.00;;;24.80;53.10;;;;;;5054608;28;20037;-84
2021/06/16 12:10:01;;;;;;;10.55;2.30;;;24.80;54.00;;;;;;5089336;28;20450;-84
2021/06/16 12:12:27;;;;;;;6.20;2.10;;;24.90;54.10;;;;;;5057437;28;20052;-84
2021/06/16 12:15:08;;;;;;;7.30;2.05;;;25.00;54.50;;;;;;5050415;28;20488;-83
2021/06/16 12:17:51;;;;;;;8.25;2.03;;;25.00;54.70;;;;;;5074770;28;20029;-83
2021/06/16 12:20:17;;;;;;;4.18;2.10;;;25.10;54.00;;;;;;5046171;28;20057;-84
2021/06/16 12:22:43;;;;;;;6.13;2.10;;;25.20;53.10;;;;;;5086312;28;20036;-83
2021/06/16 12:25:09;;;;;;;6.13;2.08;;;25.20;53.70;;;;;;5048510;28;20041;-85
2021/06/16 12:27:35;;;;;;;5.63;2.03;;;25.20;53.70;;;;;;5014440;28;20076;-84
2021/06/16 12:30:01;;;;;;;8.52;2.10;;;25.30;52.50;;;;;;5045471;28;20033;-85
2021/06/16 12:32:35;;;;;;;5.68;2.10;;;25.30;52.40;;;;;;5054597;28;20044;-83
2021/06/16 12:37:53;;;;;;;8.35;2.40;;;25.40;54.30;;;;;;5058601;28;20651;-83
2021/06/16 12:40:34;;;;;;;7.03;2.10;;;25.40;55.30;;;;;;5057085;28;20100;-83
2021/06/16 12:43:00;;;;;;;4.20;2.00;;;25.50;55.90;;;;;;5095605;28;20115;-84
2021/06/16 12:45:32;;;;;;;8.75;2.65;;;25.50;55.30;;;;;;5038399;28;20078;-86
2021/06/16 12:48:00;;;;;;;7.32;2.10;;;25.60;53.30;;;;;;5048056;28;20369;-83
2021/06/16 12:50:33;;;;;;;5.75;2.40;;;25.60;54.00;;;;;;5047859;28;20048;-85
2021/06/16 12:53:20;;;;;;;10.43;2.38;;;25.70;52.30;;;;;;5048273;28;20091;-84